createdAt,value
2022-10-17T00:00:47.388Z,8.79
2022-10-17T00:03:15.147Z,8.80
2022-10-17T00:05:46.900Z,8.82
2022-10-17T00:08:16.226Z,8.82
2022-10-17T00:10:43.241Z,8.82
2022-10-17T00:13:10.297Z,8.83
2022-10-17T00:15:37.432Z,8.79
2022-10-17T00:18:04.656Z,8.78
2022-10-17T00:20:33.037Z,8.79
2022-10-17T00:23:00.721Z,8.81
2022-10-17T00:25:27.783Z,8.82
2022-10-17T00:27:54.745Z,8.79
2022-10-17T00:30:21.743Z,8.76
2022-10-17T00:32:48.736Z,8.73
2022-10-17T00:35:15.749Z,8.67
2022-10-17T00:37:42.713Z,8.63
2022-10-17T00:40:10.798Z,8.58
2022-10-17T00:42:39.038Z,8.57
2022-10-17T00:45:28.754Z,8.55
2022-10-17T00:48:09.578Z,8.53
2022-10-17T00:50:39.092Z,8.48
2022-10-17T00:53:08.472Z,8.46
2022-10-17T00:55:39.579Z,8.43
2022-10-17T00:58:06.977Z,8.41
2022-10-17T01:00:37.053Z,8.39
2022-10-17T01:03:04.616Z,8.39
2022-10-17T01:05:31.830Z,8.39
2022-10-17T01:07:59.912Z,8.45
2022-10-17T01:10:32.238Z,8.48
2022-10-17T01:13:36.202Z,8.51
2022-10-17T01:16:13.858Z,8.45
2022-10-17T01:22:07.898Z,8.40
2022-10-17T01:25:27.426Z,8.35
2022-10-17T01:28:34.751Z,8.30
2022-10-17T01:31:16.692Z,8.27
2022-10-17T01:34:18.698Z,8.26
2022-10-17T01:36:56.906Z,8.26
2022-10-17T01:39:48.665Z,8.29
2022-10-17T01:42:31.106Z,8.27
2022-10-17T01:45:22.081Z,8.30
2022-10-17T01:47:53.179Z,8.29
2022-10-17T01:50:33.180Z,8.31
2022-10-17T01:53:08.853Z,8.31
2022-10-17T01:55:39.821Z,8.26
2022-10-17T01:58:24.236Z,8.19
2022-10-17T02:00:53.655Z,8.13
2022-10-17T02:03:22.015Z,8.06
2022-10-17T02:05:49.406Z,8.00
2022-10-17T02:08:26.749Z,7.92
2022-10-17T02:11:09.826Z,7.89
2022-10-17T02:17:25.531Z,7.74
2022-10-17T02:20:10.515Z,7.73
2022-10-17T02:23:02.938Z,7.76
2022-10-17T02:25:49.510Z,7.79
2022-10-17T02:28:32.504Z,7.78
2022-10-17T02:31:08.938Z,7.80
2022-10-17T02:34:00.304Z,7.81
2022-10-17T02:36:32.667Z,7.80
2022-10-17T02:39:03.286Z,7.82
2022-10-17T02:41:31.731Z,7.82
2022-10-17T02:44:01.624Z,7.84
2022-10-17T02:46:31.669Z,7.85
2022-10-17T02:49:07.639Z,7.86
2022-10-17T02:51:57.913Z,7.79
2022-10-17T02:54:51.726Z,7.70
2022-10-17T02:57:30.803Z,7.62
2022-10-17T03:00:04.296Z,7.57
2022-10-17T03:02:46.427Z,7.55
2022-10-17T03:05:17.262Z,7.53
2022-10-17T03:07:44.667Z,7.51
2022-10-17T03:10:11.729Z,7.49
2022-10-17T03:12:38.736Z,7.48
2022-10-17T03:15:06.681Z,7.51
2022-10-17T03:17:34.285Z,7.54
2022-10-17T03:20:01.300Z,7.57
2022-10-17T03:22:30.238Z,7.58
2022-10-17T03:24:59.066Z,7.60
2022-10-17T03:27:26.476Z,7.60
2022-10-17T03:29:53.685Z,7.61
2022-10-17T03:32:21.067Z,7.62
2022-10-17T03:34:48.473Z,7.62
2022-10-17T03:37:15.767Z,7.61
2022-10-17T03:39:43.880Z,7.58
2022-10-17T03:42:10.894Z,7.48
2022-10-17T03:44:38.260Z,7.42
2022-10-17T03:47:06.527Z,7.37
2022-10-17T03:49:36.340Z,7.33
2022-10-17T03:52:03.716Z,7.30
2022-10-17T03:54:30.905Z,7.28
2022-10-17T03:59:29.792Z,7.24
2022-10-17T04:02:05.018Z,7.23
2022-10-17T04:04:31.972Z,7.17
2022-10-17T04:06:58.954Z,7.12
2022-10-17T04:09:25.917Z,7.06
2022-10-17T04:12:05.581Z,7.06
2022-10-17T04:14:33.509Z,7.08
2022-10-17T04:17:01.515Z,7.10
2022-10-17T04:19:29.325Z,7.07
2022-10-17T04:21:56.579Z,7.06
2022-10-17T04:24:23.883Z,7.08
2022-10-17T04:27:09.710Z,7.07
2022-10-17T04:29:40.554Z,7.03
2022-10-17T04:32:16.265Z,7.00
2022-10-17T04:34:50.637Z,6.97
2022-10-17T04:37:19.561Z,6.93
2022-10-17T04:39:48.530Z,6.93
2022-10-17T04:42:15.623Z,6.93
2022-10-17T04:44:43.409Z,6.93
2022-10-17T04:47:10.670Z,6.91
2022-10-17T04:49:39.111Z,6.93
2022-10-17T04:52:09.842Z,6.91
2022-10-17T04:54:44.394Z,6.93
2022-10-17T04:57:13.785Z,6.93
2022-10-17T04:59:42.915Z,6.97
2022-10-17T05:02:22.118Z,7.01
2022-10-17T05:04:49.159Z,7.07
2022-10-17T05:07:16.620Z,7.09
2022-10-17T05:10:03.865Z,7.10
2022-10-17T05:12:32.460Z,7.12
2022-10-17T05:14:59.727Z,7.16
2022-10-17T05:17:28.511Z,7.22
2022-10-17T05:19:55.498Z,7.24
2022-10-17T05:22:22.839Z,7.29
2022-10-17T05:24:50.102Z,7.31
2022-10-17T05:27:17.199Z,7.38
2022-10-17T05:29:44.233Z,7.42
2022-10-17T05:32:18.981Z,7.46
2022-10-17T05:34:46.171Z,7.49
2022-10-17T05:37:13.622Z,7.54
2022-10-17T05:39:49.168Z,7.59
2022-10-17T05:42:22.509Z,7.62
2022-10-17T05:44:49.930Z,7.64
2022-10-17T05:47:19.494Z,7.65
2022-10-17T05:49:51.453Z,7.67
2022-10-17T05:52:25.489Z,7.69
2022-10-17T05:55:01.549Z,7.76
2022-10-17T05:57:28.564Z,7.87
2022-10-17T05:59:56.978Z,7.97
2022-10-17T06:02:24.077Z,8.11
2022-10-17T06:04:51.152Z,8.23
2022-10-17T06:07:20.874Z,8.33
2022-10-17T06:09:49.161Z,8.43
2022-10-17T06:12:16.398Z,8.50
2022-10-17T06:14:44.291Z,8.61
2022-10-17T06:17:15.988Z,8.74
2022-10-17T06:19:45.022Z,8.82
2022-10-17T06:22:14.333Z,8.89
2022-10-17T06:24:41.623Z,8.88
2022-10-17T06:27:11.737Z,8.92
2022-10-17T06:29:40.979Z,8.98
2022-10-17T06:32:11.090Z,9.05
2022-10-17T06:34:41.867Z,9.08
2022-10-17T06:37:09.623Z,9.11
2022-10-17T06:39:39.047Z,9.22
2022-10-17T06:42:10.970Z,9.34
2022-10-17T06:44:53.936Z,9.40
2022-10-17T06:47:39.854Z,9.47
2022-10-17T06:50:27.120Z,9.58
2022-10-17T06:53:06.303Z,9.72
2022-10-17T06:56:07.783Z,9.77
2022-10-17T06:58:53.212Z,9.80
2022-10-17T07:01:34.700Z,9.88
2022-10-17T07:04:03.762Z,9.92
2022-10-17T07:06:32.462Z,10.03
2022-10-17T07:09:07.139Z,10.12
2022-10-17T07:11:36.749Z,10.15
2022-10-17T07:14:04.051Z,10.23
2022-10-17T07:16:31.149Z,10.57
2022-10-17T07:19:05.337Z,10.64
2022-10-17T07:21:38.990Z,10.59
2022-10-17T07:24:08.008Z,10.56
2022-10-17T07:26:35.337Z,10.58
2022-10-17T07:29:02.634Z,10.67
2022-10-17T07:31:52.548Z,10.76
2022-10-17T07:34:19.613Z,10.84
2022-10-17T07:36:46.614Z,10.98
2022-10-17T07:39:15.250Z,11.10
2022-10-17T07:41:42.336Z,11.25
2022-10-17T07:44:09.447Z,11.31
2022-10-17T07:46:47.044Z,11.39
2022-10-17T07:49:14.119Z,11.51
2022-10-17T07:51:42.214Z,11.57
2022-10-17T07:54:09.504Z,11.67
2022-10-17T07:56:40.447Z,11.80
2022-10-17T07:59:09.378Z,11.99
2022-10-17T08:01:37.387Z,11.87
2022-10-17T08:04:04.437Z,11.90
2022-10-17T08:06:31.370Z,11.99
2022-10-17T08:08:59.064Z,12.14
2022-10-17T08:11:26.047Z,12.40
2022-10-17T08:13:53.046Z,12.43
2022-10-17T08:16:20.030Z,12.45
2022-10-17T08:18:46.949Z,12.51
2022-10-17T08:21:14.077Z,12.62
2022-10-17T08:23:41.853Z,12.77
2022-10-17T08:26:10.877Z,12.87
2022-10-17T08:28:39.966Z,12.98
2022-10-17T08:31:21.199Z,13.17
2022-10-17T08:33:49.442Z,13.33
2022-10-17T08:36:18.577Z,13.43
2022-10-17T08:38:50.344Z,13.48
2022-10-17T08:42:04.637Z,13.66
2022-10-17T08:45:19.528Z,13.82
2022-10-17T08:47:50.482Z,13.95
2022-10-17T08:50:40.640Z,14.16
2022-10-17T08:53:29.757Z,14.27
2022-10-17T08:55:59.973Z,14.39
2022-10-17T08:58:33.224Z,14.48
2022-10-17T09:01:13.248Z,14.60
2022-10-17T09:04:37.312Z,14.81
2022-10-17T09:07:56.461Z,14.93
2022-10-17T09:10:52.013Z,14.92
2022-10-17T09:14:11.343Z,15.06
2022-10-17T09:17:16.994Z,15.16
2022-10-17T09:19:53.833Z,15.31
2022-10-17T09:22:25.954Z,15.50
2022-10-17T09:24:57.398Z,15.58
2022-10-17T09:27:41.800Z,15.74
2022-10-17T09:30:46.707Z,15.98
2022-10-17T09:33:34.549Z,16.03
2022-10-17T09:36:16.056Z,16.22
2022-10-17T09:38:47.992Z,16.39
2022-10-17T09:44:18.792Z,16.62
2022-10-17T09:46:56.756Z,16.65
2022-10-17T09:49:32.798Z,16.84
2022-10-17T09:52:01.986Z,17.01
2022-10-17T09:54:52.374Z,17.26
2022-10-17T09:57:20.901Z,17.55
2022-10-17T10:00:00.497Z,17.60
2022-10-17T10:02:30.118Z,17.56
2022-10-17T10:05:06.932Z,17.79
2022-10-17T10:07:39.415Z,18.04
2022-10-17T10:10:23.687Z,18.28
2022-10-17T10:13:25.933Z,18.60
2022-10-17T10:15:53.297Z,18.86
2022-10-17T10:18:36.358Z,18.90
2022-10-17T10:21:18.067Z,19.05
2022-10-17T10:24:03.997Z,19.35
2022-10-17T10:26:59.145Z,19.51
2022-10-17T10:29:55.063Z,19.70
2022-10-17T10:35:36.068Z,19.97
2022-10-17T10:38:08.955Z,20.16
2022-10-17T10:40:45.759Z,20.34
2022-10-17T10:43:41.889Z,20.56
2022-10-17T10:46:24.266Z,20.85
2022-10-17T10:49:02.396Z,21.13
2022-10-17T10:51:38.578Z,21.48
2022-10-17T10:54:44.752Z,21.48
2022-10-17T10:57:20.969Z,21.55
2022-10-17T11:00:26.099Z,21.77
2022-10-17T11:03:12.781Z,21.95
2022-10-17T11:05:53.557Z,22.05
2022-10-17T11:08:31.308Z,22.25
2022-10-17T11:11:32.383Z,22.41
2022-10-17T11:14:31.361Z,22.74
2022-10-17T11:17:17.410Z,23.10
2022-10-17T11:20:03.103Z,23.05
2022-10-17T11:22:33.259Z,23.11
2022-10-17T11:25:33.128Z,23.00
2022-10-17T11:28:04.683Z,23.17
2022-10-17T11:30:46.216Z,23.28
2022-10-17T11:33:24.515Z,23.52
2022-10-17T11:35:54.690Z,23.61
2022-10-17T11:38:33.423Z,23.65
2022-10-17T11:41:00.951Z,23.75
2022-10-17T11:44:05.455Z,23.88
2022-10-17T11:46:36.347Z,24.09
2022-10-17T11:49:19.832Z,24.29
2022-10-17T11:52:43.919Z,24.33
2022-10-17T11:55:25.141Z,24.37
2022-10-17T11:58:25.449Z,24.30
2022-10-17T12:01:25.080Z,24.31
2022-10-17T12:04:26.945Z,24.38
2022-10-17T12:07:32.804Z,24.36
2022-10-17T12:10:24.395Z,24.65
2022-10-17T12:12:51.434Z,24.84
2022-10-17T12:15:36.709Z,24.96
2022-10-17T12:18:04.415Z,24.96
2022-10-17T12:20:36.796Z,25.09
2022-10-17T12:23:27.104Z,25.20
2022-10-17T12:26:04.656Z,25.29
2022-10-17T12:28:44.556Z,25.53
2022-10-17T12:31:29.665Z,25.75
2022-10-17T12:34:02.198Z,26.08
2022-10-17T12:36:39.064Z,26.23
2022-10-17T12:39:46.437Z,26.16
2022-10-17T12:42:33.080Z,26.25
2022-10-17T12:45:00.224Z,26.16
2022-10-17T12:47:39.768Z,25.81
2022-10-17T12:50:46.229Z,25.75
2022-10-17T12:53:20.255Z,25.86
2022-10-17T12:55:48.107Z,25.83
2022-10-17T12:58:16.918Z,26.01
2022-10-17T13:03:46.281Z,26.22
2022-10-17T13:06:22.004Z,26.38
2022-10-17T13:08:58.689Z,26.36
2022-10-17T13:11:31.718Z,26.53
2022-10-17T13:13:59.302Z,26.61
2022-10-17T13:16:38.564Z,26.73
2022-10-17T13:19:15.175Z,26.74
2022-10-17T13:22:13.689Z,26.73
2022-10-17T13:24:41.327Z,26.69
2022-10-17T13:27:32.638Z,26.73
2022-10-17T13:30:03.508Z,26.98
2022-10-17T13:32:38.794Z,27.03
2022-10-17T13:35:11.933Z,27.00
2022-10-17T13:37:41.743Z,27.09
2022-10-17T13:40:44.094Z,27.12
2022-10-17T13:43:06.108Z,27.33
2022-10-17T13:45:37.147Z,27.55
2022-10-17T13:48:08.348Z,27.66
2022-10-17T13:50:44.620Z,27.80
2022-10-17T13:53:44.153Z,27.93
2022-10-17T13:56:29.833Z,28.07
2022-10-17T13:59:00.248Z,28.26
2022-10-17T14:01:29.273Z,28.14
2022-10-17T14:04:08.520Z,28.00
2022-10-17T14:06:45.196Z,27.88
2022-10-17T14:09:25.330Z,27.96
2022-10-17T14:12:19.765Z,28.08
2022-10-17T14:15:09.787Z,28.28
2022-10-17T14:17:38.673Z,28.54
2022-10-17T14:20:40.703Z,28.78
2022-10-17T14:23:21.620Z,29.56
2022-10-17T14:25:46.944Z,30.95
2022-10-17T14:28:17.082Z,32.32
2022-10-17T14:31:01.417Z,33.47
2022-10-17T14:33:32.188Z,34.69
2022-10-17T14:36:02.182Z,35.37
2022-10-17T14:38:30.461Z,35.84
2022-10-17T14:41:37.339Z,36.14
2022-10-17T14:43:57.417Z,36.55
2022-10-17T14:46:24.900Z,36.51
2022-10-17T14:49:07.041Z,36.37
2022-10-17T14:51:44.759Z,36.41
2022-10-17T14:54:28.704Z,36.54
2022-10-17T14:56:56.125Z,36.52
2022-10-17T14:59:52.058Z,36.44
2022-10-17T15:02:12.310Z,36.21
2022-10-17T15:04:39.243Z,35.99
2022-10-17T15:07:06.302Z,35.80
2022-10-17T15:09:33.198Z,35.50
2022-10-17T15:12:07.227Z,35.14
2022-10-17T15:14:34.452Z,34.82
2022-10-17T15:17:01.504Z,34.18
2022-10-17T15:19:28.427Z,32.87
2022-10-17T15:21:55.332Z,31.30
2022-10-17T15:24:22.286Z,30.18
2022-10-17T15:26:49.729Z,29.70
2022-10-17T15:29:16.712Z,29.15
2022-10-17T15:31:43.789Z,28.20
2022-10-17T15:34:10.688Z,27.20
2022-10-17T15:36:41.344Z,26.34
2022-10-17T15:39:10.069Z,25.59
2022-10-17T15:41:39.248Z,24.84
2022-10-17T15:44:06.296Z,24.24
2022-10-17T15:46:35.255Z,23.81
2022-10-17T15:49:07.717Z,23.35
2022-10-17T15:51:34.780Z,22.99
2022-10-17T15:54:01.988Z,22.66
2022-10-17T15:56:36.441Z,22.30
2022-10-17T15:59:06.223Z,21.92
2022-10-17T16:01:34.364Z,21.50
2022-10-17T16:04:01.578Z,21.15
2022-10-17T16:06:29.283Z,20.82
2022-10-17T16:08:56.340Z,20.41
2022-10-17T16:11:33.798Z,20.05
2022-10-17T16:14:03.352Z,19.81
2022-10-17T16:16:30.529Z,19.62
2022-10-17T16:18:58.048Z,19.42
2022-10-17T16:21:28.453Z,19.27
2022-10-17T16:23:55.611Z,19.14
2022-10-17T16:26:22.794Z,19.01
2022-10-17T16:28:49.795Z,18.84
2022-10-17T16:31:22.673Z,18.66
2022-10-17T16:33:52.310Z,18.50
2022-10-17T16:36:19.759Z,18.36
2022-10-17T16:38:47.663Z,18.27
2022-10-17T16:41:36.531Z,18.17
2022-10-17T16:44:08.963Z,18.01
2022-10-17T16:46:37.661Z,17.93
2022-10-17T16:49:07.823Z,17.87
2022-10-17T16:51:36.028Z,17.80
2022-10-17T16:54:04.819Z,17.73
2022-10-17T16:56:33.248Z,17.61
2022-10-17T16:59:01.271Z,17.52
2022-10-17T17:01:29.515Z,17.46
2022-10-17T17:03:56.996Z,17.37
2022-10-17T17:06:27.094Z,17.30
2022-10-17T17:08:55.171Z,17.23
2022-10-17T17:11:24.525Z,17.15
2022-10-17T17:13:52.010Z,17.03
2022-10-17T17:16:23.469Z,16.89
2022-10-17T17:18:59.100Z,16.77
2022-10-17T17:21:27.219Z,16.68
2022-10-17T17:23:57.106Z,16.66
2022-10-17T17:26:24.726Z,16.58
2022-10-17T17:28:53.481Z,16.32
2022-10-17T17:31:25.725Z,16.25
2022-10-17T17:33:57.199Z,16.16
2022-10-17T17:36:26.958Z,16.08
2022-10-17T17:38:56.388Z,16.01
2022-10-17T17:41:23.788Z,15.94
2022-10-17T17:43:51.204Z,15.85
2022-10-17T17:46:20.543Z,15.66
2022-10-17T17:48:48.837Z,15.48
2022-10-17T17:51:18.584Z,15.32
2022-10-17T17:53:45.552Z,15.13
2022-10-17T17:56:18.709Z,14.94
2022-10-17T17:58:47.122Z,14.75
2022-10-17T18:01:21.899Z,14.60
2022-10-17T18:03:50.134Z,14.50
2022-10-17T18:06:18.237Z,14.45
2022-10-17T18:08:48.057Z,14.43
2022-10-17T18:11:17.150Z,14.37
2022-10-17T18:13:47.253Z,14.24
2022-10-17T18:16:14.164Z,14.09
2022-10-17T18:18:43.219Z,13.96
2022-10-17T18:21:13.041Z,13.89
2022-10-17T18:23:41.740Z,13.85
2022-10-17T18:26:09.152Z,13.78
2022-10-17T18:28:38.158Z,13.70
2022-10-17T18:31:10.707Z,13.61
2022-10-17T18:33:37.879Z,13.58
2022-10-17T18:36:07.272Z,13.52
2022-10-17T18:38:34.580Z,13.50
2022-10-17T18:41:12.770Z,13.53
2022-10-17T18:43:41.756Z,13.52
2022-10-17T18:46:17.838Z,13.57
2022-10-17T18:48:46.262Z,13.60
2022-10-17T18:51:14.579Z,13.60
2022-10-17T18:53:43.519Z,13.63
2022-10-17T18:56:11.425Z,13.66
2022-10-17T18:58:39.343Z,13.68
2022-10-17T19:01:09.590Z,13.72
2022-10-17T19:03:36.572Z,13.73
2022-10-17T19:06:07.395Z,13.74
2022-10-17T19:08:35.839Z,13.73
2022-10-17T19:11:10.970Z,13.73
2022-10-17T19:13:38.458Z,13.71
2022-10-17T19:16:07.009Z,13.72
2022-10-17T19:18:36.716Z,13.61
2022-10-17T19:21:06.031Z,13.42
2022-10-17T19:23:35.535Z,13.21
2022-10-17T19:26:09.289Z,13.02
2022-10-17T19:28:38.262Z,12.87
2022-10-17T19:31:06.740Z,12.75
2022-10-17T19:33:34.498Z,12.67
2022-10-17T19:36:04.328Z,12.62
2022-10-17T19:38:31.368Z,12.60
2022-10-17T19:43:30.267Z,12.55
2022-10-17T19:45:59.184Z,12.53
2022-10-17T19:48:27.103Z,12.51
2022-10-17T19:50:54.202Z,12.50
2022-10-17T19:53:23.791Z,12.53
2022-10-17T19:55:51.434Z,12.52
2022-10-17T19:58:18.373Z,12.47
2022-10-17T20:00:50.302Z,12.47
2022-10-17T20:03:18.104Z,12.45
2022-10-17T20:05:45.964Z,12.42
2022-10-17T20:08:13.624Z,12.45
2022-10-17T20:10:40.890Z,12.45
2022-10-17T20:13:08.094Z,12.39
2022-10-17T20:15:34.972Z,12.33
2022-10-17T20:18:02.037Z,12.26
2022-10-17T20:20:29.066Z,12.21
2022-10-17T20:22:56.057Z,12.13
2022-10-17T20:25:23.182Z,12.09
2022-10-17T20:27:50.087Z,12.03
2022-10-17T20:30:17.141Z,12.00
2022-10-17T20:32:44.079Z,11.97
2022-10-17T20:35:11.125Z,11.95
2022-10-17T20:37:41.639Z,11.97
2022-10-17T20:40:33.721Z,11.96
2022-10-17T20:42:57.391Z,11.94
2022-10-17T20:45:37.502Z,11.91
2022-10-17T20:48:15.279Z,11.85
2022-10-17T20:50:43.451Z,11.76
2022-10-17T20:53:35.463Z,11.67
2022-10-17T20:56:21.577Z,11.53
2022-10-17T20:59:16.442Z,11.44
2022-10-17T21:01:45.234Z,11.35
2022-10-17T21:04:45.296Z,11.25
2022-10-17T21:06:59.849Z,11.17
2022-10-17T21:09:26.767Z,11.17
2022-10-17T21:11:55.806Z,11.16
2022-10-17T21:14:24.901Z,11.10
2022-10-17T21:16:55.090Z,11.02
2022-10-17T21:19:22.212Z,10.93
2022-10-17T21:21:49.213Z,10.83
2022-10-17T21:24:19.312Z,10.72
2022-10-17T21:26:48.001Z,10.66
2022-10-17T21:29:15.304Z,10.62
2022-10-17T21:31:44.091Z,10.62
2022-10-17T21:34:13.464Z,10.66
2022-10-17T21:36:41.127Z,10.65
2022-10-17T21:41:40.985Z,10.58
2022-10-17T21:44:12.664Z,10.49
2022-10-17T21:46:39.685Z,10.40
2022-10-17T21:49:07.143Z,10.38
2022-10-17T21:51:34.200Z,10.33
2022-10-17T21:54:04.377Z,10.28
2022-10-17T21:56:34.835Z,10.23
2022-10-17T21:59:02.217Z,10.13
2022-10-17T22:01:31.635Z,10.02
2022-10-17T22:04:01.351Z,9.92
2022-10-17T22:06:40.521Z,9.83
2022-10-17T22:09:18.122Z,9.80
2022-10-17T22:11:47.616Z,9.75
2022-10-17T22:14:17.402Z,9.69
2022-10-17T22:16:47.759Z,9.63
2022-10-17T22:19:17.021Z,9.60
2022-10-17T22:21:44.229Z,9.60
2022-10-17T22:24:17.055Z,9.62
2022-10-17T22:26:44.802Z,9.58
2022-10-17T22:29:12.077Z,9.61
2022-10-17T22:31:39.304Z,9.63
2022-10-17T22:34:07.728Z,9.57
2022-10-17T22:36:35.144Z,9.51
2022-10-17T22:39:02.436Z,9.42
2022-10-17T22:41:29.434Z,9.33
2022-10-17T22:43:56.448Z,9.28
2022-10-17T22:46:23.408Z,9.24
2022-10-17T22:48:50.292Z,9.20
2022-10-17T22:51:17.825Z,9.11
2022-10-17T22:53:44.914Z,9.03
2022-10-17T22:56:17.270Z,8.92
2022-10-17T22:58:44.311Z,8.92
2022-10-17T23:01:16.053Z,8.83
2022-10-17T23:03:43.421Z,8.78
2022-10-17T23:06:10.619Z,8.77
2022-10-17T23:08:37.866Z,8.78
2022-10-17T23:11:05.601Z,8.81
2022-10-17T23:13:32.545Z,8.86
2022-10-17T23:15:59.510Z,8.88
2022-10-17T23:18:27.220Z,8.90
2022-10-17T23:20:54.620Z,8.90
2022-10-17T23:23:21.879Z,8.85
2022-10-17T23:25:49.601Z,8.74
2022-10-17T23:28:16.936Z,8.66
2022-10-17T23:30:44.285Z,8.65
2022-10-17T23:33:13.091Z,8.68
2022-10-17T23:35:40.566Z,8.72
2022-10-17T23:38:07.492Z,8.73
2022-10-17T23:40:35.538Z,8.75
2022-10-17T23:43:03.561Z,8.74
2022-10-17T23:45:34.656Z,8.76
2022-10-17T23:48:04.912Z,8.70
2022-10-17T23:50:31.913Z,8.63
2022-10-17T23:52:58.931Z,8.53
2022-10-17T23:55:25.901Z,8.47
2022-10-17T23:57:53.283Z,8.45
